Time;durP1;ratioP1;P1;durP2;ratioP2;P2;SDS_P1;SDS_P2;PMS_P1;PMS_P2;Temp;Humidity;BMP_temperature;BMP_pressure;BME280_temperature;BME280_humidity;BME280_pressure;Samples;Min_cycle;Max_cycle;Signal;HPM_P1;HPM_P2
2022/01/12 00:01:42;;;;;;;53.33;31.30;;;4.10;99.90;;;;;;5017284;28;20139;-76
2022/01/12 00:04:09;;;;;;;52.92;30.55;;;4.10;99.90;;;;;;5028533;28;20041;-76
2022/01/12 00:06:35;;;;;;;59.75;30.73;;;4.20;99.90;;;;;;5015581;28;20085;-76
2022/01/12 00:09:06;;;;;;;57.17;31.73;;;4.20;99.90;;;;;;5030549;28;20076;-76
2022/01/12 00:11:32;;;;;;;61.25;32.40;;;4.20;99.90;;;;;;5023120;28;20040;-76
2022/01/12 00:13:57;;;;;;;55.28;31.58;;;4.20;99.90;;;;;;5027469;28;20479;-76
2022/01/12 00:16:23;;;;;;;64.47;32.70;;;4.20;99.90;;;;;;5020701;28;20071;-76
2022/01/12 00:18:49;;;;;;;61.00;31.45;;;4.20;99.90;;;;;;5032953;28;20042;-76
2022/01/12 00:21:15;;;;;;;64.47;31.30;;;4.20;99.90;;;;;;5014876;28;20357;-76
2022/01/12 00:23:41;;;;;;;61.15;32.50;;;4.20;99.90;;;;;;5024288;28;20067;-76
2022/01/12 00:26:26;;;;;;;64.95;33.08;;;4.20;99.90;;;;;;5024135;28;20046;-76
2022/01/12 00:34:20;;;;;;;69.05;32.55;;;4.20;99.90;;;;;;5015065;28;20043;-76
2022/01/12 00:36:46;;;;;;;68.70;33.65;;;4.20;99.90;;;;;;5033828;28;20044;-76
2022/01/12 00:39:11;;;;;;;77.95;34.13;;;4.20;99.90;;;;;;5031355;28;20138;-76
2022/01/12 00:41:38;;;;;;;73.53;35.05;;;4.20;99.90;;;;;;5040269;28;20041;-76
2022/01/12 00:44:08;;;;;;;84.32;34.88;;;4.20;99.90;;;;;;5020200;28;20051;-76
2022/01/12 00:46:34;;;;;;;84.88;36.10;;;4.20;99.90;;;;;;5033870;28;20135;-76
2022/01/12 00:49:00;;;;;;;68.38;33.25;;;4.20;99.90;;;;;;5033717;28;20044;-76
2022/01/12 00:51:28;;;;;;;78.28;33.97;;;4.20;99.90;;;;;;5020540;28;20045;-76
2022/01/12 00:53:54;;;;;;;96.45;35.88;;;4.20;99.90;;;;;;5033560;28;20060;-76
2022/01/12 00:56:21;;;;;;;76.20;33.92;;;4.20;99.90;;;;;;5023493;28;20543;-76
2022/01/12 00:58:47;;;;;;;69.97;33.75;;;4.20;99.90;;;;;;5013856;28;20043;-76
2022/01/12 01:01:12;;;;;;;76.47;33.60;;;4.20;99.90;;;;;;4998939;28;20041;-76
2022/01/12 01:03:38;;;;;;;75.38;33.40;;;4.20;99.90;;;;;;5013814;28;20083;-76
2022/01/12 01:06:07;;;;;;;76.53;35.75;;;4.20;99.90;;;;;;5030503;28;20064;-76
2022/01/12 01:08:32;;;;;;;77.53;34.47;;;4.20;99.90;;;;;;5016941;28;20045;-76
2022/01/12 01:10:58;;;;;;;88.32;35.85;;;4.20;99.90;;;;;;5050750;28;20033;-76
2022/01/12 01:13:28;;;;;;;87.18;34.58;;;4.20;99.90;;;;;;5016740;28;20469;-76
2022/01/12 01:16:08;;;;;;;78.50;33.72;;;4.20;99.90;;;;;;5031120;28;20048;-76
2022/01/12 01:26:49;;;;;;;77.72;34.08;;;4.20;99.90;;;;;;5032038;28;20045;-76
2022/01/12 01:29:15;;;;;;;78.55;34.17;;;4.20;99.90;;;;;;5049220;28;20100;-76
2022/01/12 01:31:43;;;;;;;86.85;35.78;;;4.20;99.90;;;;;;5032724;28;20498;-76
2022/01/12 01:34:11;;;;;;;80.65;35.60;;;4.20;99.90;;;;;;5032197;28;20041;-76
2022/01/12 01:36:46;;;;;;;87.15;35.05;;;4.30;99.90;;;;;;5022146;28;20048;-76
2022/01/12 01:39:14;;;;;;;79.32;33.25;;;4.30;99.90;;;;;;5013026;28;20045;-76
2022/01/12 01:41:43;;;;;;;85.38;34.65;;;4.30;99.90;;;;;;5025269;28;20040;-76
2022/01/12 01:55:10;;;;;;;78.80;32.38;;;4.30;99.90;;;;;;5031120;28;20044;-76
2022/01/12 01:57:38;;;;;;;100.50;34.78;;;4.30;99.90;;;;;;5007474;28;20060;-76
2022/01/12 02:00:08;;;;;;;90.22;34.55;;;4.30;99.90;;;;;;5028763;28;20045;-76
2022/01/12 02:02:34;;;;;;;69.97;31.40;;;4.30;99.90;;;;;;5030459;28;20514;-76
2022/01/12 02:04:59;;;;;;;106.95;37.08;;;4.30;99.90;;;;;;5030612;28;20075;-76
2022/01/12 02:07:25;;;;;;;106.10;36.28;;;4.30;99.90;;;;;;5023096;28;20052;-76
2022/01/12 02:09:51;;;;;;;103.40;34.83;;;4.30;99.90;;;;;;5023727;28;20060;-76
2022/01/12 02:12:28;;;;;;;106.53;36.60;;;4.40;99.90;;;;;;5031012;28;20045;-76
2022/01/12 02:14:55;;;;;;;86.88;33.67;;;4.30;99.90;;;;;;5031927;28;20037;-76
2022/01/12 02:17:26;;;;;;;106.15;37.15;;;4.40;99.90;;;;;;5012441;28;20096;-76
2022/01/12 02:20:11;;;;;;;100.88;33.88;;;4.30;99.90;;;;;;5017406;28;20045;-76
2022/01/12 02:36:26;;;;;;;69.88;28.27;;;4.40;99.90;;;;;;5036435;28;20493;-76
2022/01/12 02:41:38;;;;;;;83.13;32.58;;;4.40;99.90;;;;;;5018142;28;20107;-76
2022/01/12 02:54:44;;;;;;;83.72;33.67;;;4.30;99.90;;;;;;5022858;28;20045;-76
2022/01/12 02:57:10;;;;;;;79.13;33.60;;;4.30;99.90;;;;;;5033938;28;20413;-76
2022/01/12 02:59:37;;;;;;;83.57;34.28;;;4.30;99.90;;;;;;5016107;28;20041;-76
2022/01/12 03:04:31;;;;;;;79.97;34.83;;;4.30;99.90;;;;;;5017679;28;20046;-76
2022/01/12 03:07:05;;;;;;;74.72;34.33;;;4.30;99.90;;;;;;5015827;28;20115;-76
2022/01/12 03:09:31;;;;;;;99.60;33.58;;;4.40;99.90;;;;;;5016610;28;20049;-76
2022/01/12 03:11:56;;;;;;;80.57;33.47;;;4.40;99.90;;;;;;5027627;28;20047;-76
2022/01/12 03:14:22;;;;;;;79.85;34.03;;;4.40;99.90;;;;;;5035260;28;20033;-76
2022/01/12 03:16:48;;;;;;;73.30;35.47;;;4.40;99.90;;;;;;5018804;28;20128;-76
2022/01/12 03:19:13;;;;;;;70.75;33.33;;;4.30;99.90;;;;;;5027891;28;20138;-76
2022/01/12 03:21:39;;;;;;;75.40;33.60;;;4.30;99.90;;;;;;5015891;28;20076;-76
2022/01/12 03:24:06;;;;;;;72.93;32.58;;;4.40;99.90;;;;;;5016153;28;20047;-76
2022/01/12 03:26:33;;;;;;;81.70;33.95;;;4.40;99.90;;;;;;5015664;28;20049;-76
2022/01/12 03:29:00;;;;;;;105.68;36.10;;;4.40;99.90;;;;;;5006961;28;20128;-76
2022/01/12 03:31:30;;;;;;;77.93;34.17;;;4.40;99.90;;;;;;5034884;28;20143;-76
2022/01/12 03:34:09;;;;;;;80.78;33.03;;;4.40;99.90;;;;;;5009450;28;20525;-76
2022/01/12 03:39:07;;;;;;;87.32;31.83;;;4.40;99.90;;;;;;5032406;28;20131;-76
2022/01/12 03:41:35;;;;;;;74.88;32.67;;;4.40;99.90;;;;;;5034132;28;20053;-76
2022/01/12 03:44:04;;;;;;;103.07;33.55;;;4.30;99.90;;;;;;5032397;28;20053;-76
2022/01/12 03:46:34;;;;;;;82.20;32.55;;;4.30;99.90;;;;;;5034826;28;20067;-76
2022/01/12 03:49:00;;;;;;;84.47;33.33;;;4.30;99.90;;;;;;5031555;28;20134;-76
2022/01/12 03:51:26;;;;;;;78.78;32.88;;;4.30;99.90;;;;;;5033149;28;20223;-76
2022/01/12 03:53:52;;;;;;;99.22;31.90;;;4.20;99.90;;;;;;5033997;28;20047;-76
2022/01/12 03:56:18;;;;;;;76.45;31.10;;;4.20;99.90;;;;;;5034791;28;20040;-76
2022/01/12 03:58:43;;;;;;;78.68;32.25;;;4.20;99.90;;;;;;5013940;28;20079;-76
2022/01/12 04:01:09;;;;;;;82.65;31.90;;;4.10;99.90;;;;;;5016010;28;20045;-76
2022/01/12 04:03:40;;;;;;;77.03;32.45;;;4.10;99.90;;;;;;5014929;28;20682;-76
2022/01/12 04:08:50;;;;;;;83.32;31.67;;;4.00;99.90;;;;;;5019511;28;20380;-76
2022/01/12 04:11:16;;;;;;;230.05;36.40;;;4.00;99.90;;;;;;5025949;28;20044;-76
2022/01/12 04:13:43;;;;;;;182.10;33.15;;;4.00;99.90;;;;;;5036671;28;20144;-76
2022/01/12 04:16:08;;;;;;;360.52;35.38;;;4.00;99.90;;;;;;5035642;28;20127;-76
2022/01/12 04:18:35;;;;;;;327.83;34.03;;;4.00;99.90;;;;;;5037211;28;20124;-76
2022/01/12 04:21:03;;;;;;;302.00;30.30;;;4.00;99.90;;;;;;5034020;28;20048;-76
2022/01/12 04:23:30;;;;;;;301.77;33.67;;;4.00;99.90;;;;;;5033717;28;20513;-76
2022/01/12 04:25:58;;;;;;;305.13;31.38;;;4.00;99.90;;;;;;5031812;28;20068;-76
2022/01/12 04:28:25;;;;;;;284.42;30.85;;;4.00;99.90;;;;;;5033544;28;20041;-76
2022/01/12 04:30:53;;;;;;;282.63;28.38;;;3.90;99.90;;;;;;5033299;28;20380;-76
2022/01/12 04:33:19;;;;;;;287.30;28.48;;;3.90;99.90;;;;;;5033059;28;20483;-76
2022/01/12 04:35:52;;;;;;;291.58;29.58;;;3.90;99.90;;;;;;5032801;28;20479;-76
2022/01/12 04:38:19;;;;;;;162.60;26.20;;;3.90;99.90;;;;;;5033133;28;20044;-76
2022/01/12 04:40:46;;;;;;;162.85;24.27;;;3.80;99.90;;;;;;5030864;28;20045;-76
2022/01/12 04:43:12;;;;;;;210.40;27.20;;;3.80;99.90;;;;;;5034054;28;20037;-76
2022/01/12 04:45:57;;;;;;;274.67;28.92;;;3.80;99.90;;;;;;5033411;28;20080;-76
2022/01/12 04:50:53;;;;;;;243.85;28.13;;;3.80;99.90;;;;;;5017254;28;20045;-76
2022/01/12 04:53:19;;;;;;;178.25;26.23;;;3.70;99.90;;;;;;5033433;28;20040;-76
2022/01/12 04:55:46;;;;;;;134.70;23.73;;;3.80;99.90;;;;;;5033074;28;20083;-76
2022/01/12 04:58:11;;;;;;;146.50;24.15;;;3.80;99.90;;;;;;5030713;28;20123;-76
2022/01/12 05:00:38;;;;;;;157.07;24.98;;;3.80;99.90;;;;;;5027370;28;20542;-76
2022/01/12 05:08:49;;;;;;;189.05;24.35;;;3.70;99.90;;;;;;5028952;28;20080;-76
2022/01/12 05:14:00;;;;;;;168.48;22.88;;;3.60;99.90;;;;;;5021683;28;20059;-76
2022/01/12 05:16:26;;;;;;;118.47;24.17;;;3.60;99.90;;;;;;5013699;28;20481;-76
2022/01/12 05:18:54;;;;;;;130.63;22.60;;;3.60;99.90;;;;;;5038636;28;20052;-76
2022/01/12 05:21:24;;;;;;;140.35;22.50;;;3.60;99.90;;;;;;5017554;28;20044;-76
2022/01/12 05:23:50;;;;;;;124.18;24.23;;;3.60;99.90;;;;;;5024779;28;20041;-76
2022/01/12 05:26:16;;;;;;;70.07;22.65;;;3.60;99.90;;;;;;5018163;28;20490;-76
2022/01/12 05:28:41;;;;;;;135.70;23.45;;;3.60;99.90;;;;;;5037497;28;20043;-76
2022/01/12 05:31:08;;;;;;;184.15;25.73;;;3.60;99.90;;;;;;5040081;28;20036;-76
2022/01/12 05:33:34;;;;;;;143.57;22.50;;;3.60;99.90;;;;;;5034995;28;20060;-76
2022/01/12 05:36:03;;;;;;;135.18;21.65;;;3.60;99.90;;;;;;5016661;28;20064;-76
2022/01/12 05:38:29;;;;;;;131.80;22.42;;;3.60;99.90;;;;;;5030224;28;20040;-76
2022/01/12 05:40:58;;;;;;;147.75;23.13;;;3.60;99.90;;;;;;5016467;28;20048;-76
2022/01/12 05:43:27;;;;;;;110.38;22.45;;;3.50;99.90;;;;;;5018402;28;20037;-76
2022/01/12 05:45:54;;;;;;;101.63;21.88;;;3.50;99.90;;;;;;5028483;28;20430;-76
2022/01/12 05:50:48;;;;;;;98.75;20.73;;;3.50;99.90;;;;;;5029867;28;20049;-76
2022/01/12 05:53:14;;;;;;;125.15;22.30;;;3.50;99.90;;;;;;5030970;28;20045;-76
2022/01/12 05:55:40;;;;;;;118.35;21.55;;;3.50;99.90;;;;;;5017971;28;20037;-76
2022/01/12 05:58:06;;;;;;;111.78;21.40;;;3.50;99.90;;;;;;5013679;28;20049;-76
2022/01/12 06:00:32;;;;;;;96.13;20.55;;;3.40;99.90;;;;;;5011326;28;20065;-76
2022/01/12 06:02:57;;;;;;;75.95;20.90;;;3.40;99.90;;;;;;5041166;28;20088;-76
2022/01/12 06:05:23;;;;;;;93.72;24.00;;;3.40;99.90;;;;;;5016544;28;20053;-76
2022/01/12 06:07:50;;;;;;;129.20;31.75;;;3.40;99.90;;;;;;5029601;28;20047;-76
2022/01/12 06:10:17;;;;;;;143.43;26.60;;;3.40;99.90;;;;;;5032588;28;20465;-76
2022/01/12 06:12:44;;;;;;;106.78;20.88;;;3.40;99.90;;;;;;5033908;28;20128;-76
2022/01/12 06:15:10;;;;;;;138.43;22.33;;;3.40;99.90;;;;;;5024869;28;20041;-76
2022/01/12 06:17:37;;;;;;;119.22;19.98;;;3.40;99.90;;;;;;5027319;28;20120;-76
2022/01/12 06:20:04;;;;;;;130.90;21.63;;;3.30;99.90;;;;;;5024886;28;20033;-76
2022/01/12 06:22:30;;;;;;;120.50;19.75;;;3.30;99.90;;;;;;5027612;28;20120;-76
2022/01/12 06:24:57;;;;;;;116.68;21.17;;;3.30;99.90;;;;;;5005270;28;20128;-76
2022/01/12 06:27:27;;;;;;;118.45;20.17;;;3.30;99.90;;;;;;5017884;28;20510;-76
2022/01/12 06:32:21;;;;;;;78.60;22.15;;;3.20;99.90;;;;;;5020327;28;20133;-76
2022/01/12 06:34:49;;;;;;;74.93;21.02;;;3.20;99.90;;;;;;5026323;28;20443;-76
2022/01/12 06:37:14;;;;;;;38.30;18.70;;;3.20;99.90;;;;;;5038810;28;20092;-76
2022/01/12 06:39:40;;;;;;;51.17;18.88;;;3.20;99.90;;;;;;5043368;28;20069;-76
2022/01/12 06:42:06;;;;;;;67.50;19.17;;;3.20;99.90;;;;;;5021144;28;20049;-76
2022/01/12 06:44:32;;;;;;;73.63;18.92;;;3.20;99.90;;;;;;5009288;28;20037;-76
2022/01/12 06:47:02;;;;;;;56.10;18.35;;;3.10;99.90;;;;;;5020440;28;20037;-76
2022/01/12 06:49:28;;;;;;;77.63;19.02;;;3.10;99.90;;;;;;5033497;28;20158;-76
2022/01/12 06:51:53;;;;;;;88.85;20.48;;;3.10;99.90;;;;;;5031556;28;20426;-76
2022/01/12 06:54:19;;;;;;;44.40;18.02;;;3.10;99.90;;;;;;5017175;28;20099;-76
2022/01/12 06:56:45;;;;;;;51.42;19.50;;;3.10;99.90;;;;;;5025940;28;20545;-76
2022/01/12 06:59:11;;;;;;;50.53;19.40;;;3.10;99.90;;;;;;5041466;28;20123;-76
2022/01/12 07:01:37;;;;;;;48.83;19.17;;;3.10;99.90;;;;;;5025842;28;20120;-76
2022/01/12 07:04:02;;;;;;;76.05;20.13;;;3.00;99.90;;;;;;5016056;28;20057;-76
2022/01/12 07:06:28;;;;;;;74.50;18.30;;;3.00;99.90;;;;;;4999608;28;20057;-76
2022/01/12 07:08:54;;;;;;;47.58;17.02;;;3.00;99.90;;;;;;5030849;28;20406;-76
2022/01/12 07:11:19;;;;;;;50.60;17.38;;;2.90;99.90;;;;;;5034720;28;20477;-75
2022/01/12 07:13:45;;;;;;;72.18;17.85;;;2.90;99.90;;;;;;5019103;28;20367;-76
2022/01/12 07:16:11;;;;;;;43.85;17.25;;;2.90;99.90;;;;;;5017458;28;20483;-76
2022/01/12 07:18:38;;;;;;;65.05;17.42;;;2.90;99.90;;;;;;5035845;28;20174;-76
2022/01/12 07:21:04;;;;;;;70.75;18.50;;;2.90;99.90;;;;;;5035865;28;20406;-76
2022/01/12 07:23:29;;;;;;;99.47;18.25;;;2.90;99.90;;;;;;5021483;28;20041;-76
2022/01/12 07:25:55;;;;;;;80.07;16.95;;;2.80;99.90;;;;;;5019128;28;20052;-75
2022/01/12 07:28:21;;;;;;;85.45;16.50;;;2.80;99.90;;;;;;5025789;28;20029;-76
2022/01/12 07:30:47;;;;;;;45.47;14.82;;;2.70;99.90;;;;;;5008407;28;20040;-76
2022/01/12 07:33:13;;;;;;;76.85;17.02;;;2.70;99.90;;;;;;5023318;28;20076;-76
2022/01/12 07:35:41;;;;;;;66.68;16.48;;;2.70;99.90;;;;;;5029563;28;20041;-76
2022/01/12 07:38:06;;;;;;;74.10;17.48;;;2.70;99.90;;;;;;5034687;28;20040;-76
2022/01/12 07:40:33;;;;;;;54.75;15.57;;;2.70;99.90;;;;;;5035134;28;20394;-76
2022/01/12 07:42:59;;;;;;;88.53;17.33;;;2.70;99.90;;;;;;5033343;28;20041;-76
2022/01/12 07:45:25;;;;;;;55.92;16.02;;;2.70;99.90;;;;;;5027813;28;20124;-76
2022/01/12 07:47:51;;;;;;;44.53;15.40;;;2.70;99.90;;;;;;5016121;28;20436;-76
2022/01/12 07:50:16;;;;;;;66.20;17.00;;;2.70;99.90;;;;;;5013415;28;20090;-76
2022/01/12 07:52:42;;;;;;;58.83;18.08;;;2.70;99.90;;;;;;5021093;28;20053;-76
2022/01/12 07:55:08;;;;;;;49.67;22.50;;;2.80;99.90;;;;;;5015361;28;20042;-76
2022/01/12 07:57:34;;;;;;;37.05;23.63;;;2.80;99.90;;;;;;5030333;28;20073;-76
2022/01/12 07:59:59;;;;;;;37.95;21.48;;;2.80;99.90;;;;;;5024423;28;20079;-76
2022/01/12 08:02:25;;;;;;;35.25;16.40;;;2.90;99.90;;;;;;5034675;28;20049;-76
2022/01/12 08:04:51;;;;;;;31.15;14.20;;;2.90;99.90;;;;;;5013135;28;20511;-77
2022/01/12 08:07:17;;;;;;;31.27;14.93;;;3.00;99.90;;;;;;5032285;28;20064;-77
2022/01/12 08:09:43;;;;;;;54.67;15.77;;;3.00;99.90;;;;;;5014773;28;20045;-76
2022/01/12 08:12:10;;;;;;;59.35;16.30;;;3.00;99.90;;;;;;5017877;28;20045;-76
2022/01/12 08:14:36;;;;;;;51.55;16.52;;;3.00;99.90;;;;;;5027436;28;20090;-75
2022/01/12 08:17:01;;;;;;;44.75;14.68;;;3.00;99.90;;;;;;5021484;28;20684;-76
2022/01/12 08:19:28;;;;;;;25.17;12.77;;;3.10;99.90;;;;;;5023799;28;20068;-76
2022/01/12 08:21:54;;;;;;;30.60;13.35;;;3.10;99.90;;;;;;5010540;28;20772;-77
2022/01/12 08:24:19;;;;;;;28.92;13.80;;;3.10;99.90;;;;;;5019032;28;20041;-77
2022/01/12 08:26:45;;;;;;;44.55;14.95;;;3.20;99.90;;;;;;5008869;28;20072;-76
2022/01/12 08:29:14;;;;;;;37.35;15.80;;;3.20;99.90;;;;;;5032328;28;20040;-76
2022/01/12 08:31:43;;;;;;;32.70;13.80;;;3.20;99.90;;;;;;5021228;28;20045;-76
2022/01/12 08:34:10;;;;;;;50.63;14.18;;;3.20;99.90;;;;;;5022540;28;20482;-76
2022/01/12 08:36:40;;;;;;;65.70;14.85;;;3.30;99.90;;;;;;5034100;28;20071;-76
2022/01/12 08:39:09;;;;;;;48.22;14.82;;;3.30;99.90;;;;;;5049735;28;20041;-75
2022/01/12 08:41:36;;;;;;;58.55;15.77;;;3.30;99.90;;;;;;5024199;28;20068;-75
2022/01/12 08:44:03;;;;;;;70.78;14.27;;;3.40;99.90;;;;;;5016868;28;20589;-75
2022/01/12 08:46:29;;;;;;;51.92;13.85;;;3.50;99.90;;;;;;5018754;28;20040;-75
2022/01/12 08:48:54;;;;;;;38.75;13.00;;;3.60;99.90;;;;;;5011011;28;20488;-75
2022/01/12 08:51:20;;;;;;;54.97;13.20;;;3.70;99.90;;;;;;5022885;28;20430;-75
2022/01/12 08:53:45;;;;;;;79.20;12.25;;;3.70;99.90;;;;;;5031448;28;20040;-75
2022/01/12 08:56:11;;;;;;;85.45;11.95;;;3.70;99.90;;;;;;5032456;28;20151;-74
2022/01/12 08:58:37;;;;;;;57.58;11.48;;;3.80;99.90;;;;;;5051481;28;20036;-74
2022/01/12 09:01:04;;;;;;;70.70;11.15;;;3.90;99.90;;;;;;5017367;28;20582;-75
2022/01/12 09:03:30;;;;;;;62.67;12.32;;;3.90;99.90;;;;;;5031905;28;20039;-75
2022/01/12 09:05:56;;;;;;;52.33;11.25;;;4.00;99.90;;;;;;5030201;28;20517;-75
2022/01/12 09:08:22;;;;;;;43.75;10.80;;;4.00;99.90;;;;;;5026412;28;20045;-75
2022/01/12 09:10:48;;;;;;;62.28;12.10;;;4.10;99.90;;;;;;5025468;28;20036;-75
2022/01/12 09:13:13;;;;;;;50.72;11.02;;;4.20;99.90;;;;;;5013498;28;20453;-75
2022/01/12 09:15:39;;;;;;;38.45;10.85;;;4.20;99.90;;;;;;5027610;28;20040;-75
2022/01/12 09:18:04;;;;;;;26.02;10.70;;;4.30;99.90;;;;;;5009848;28;20045;-76
2022/01/12 09:20:30;;;;;;;42.25;10.57;;;4.30;99.90;;;;;;5021969;28;20055;-75
2022/01/12 09:22:56;;;;;;;48.88;11.55;;;4.30;99.90;;;;;;5029478;28;20049;-76
2022/01/12 09:25:22;;;;;;;49.08;11.15;;;4.40;99.90;;;;;;5022444;28;20112;-75
2022/01/12 09:27:48;;;;;;;37.70;12.02;;;4.50;99.90;;;;;;5026413;28;20045;-75
2022/01/12 09:30:15;;;;;;;51.63;10.90;;;4.50;99.90;;;;;;5030052;28;20041;-76
2022/01/12 09:32:41;;;;;;;32.78;10.10;;;4.60;99.90;;;;;;5023009;28;20128;-75
2022/01/12 09:35:08;;;;;;;48.42;10.65;;;4.60;99.90;;;;;;5024916;28;20132;-75
2022/01/12 09:37:33;;;;;;;32.85;9.73;;;4.70;99.90;;;;;;5025335;28;20040;-75
2022/01/12 09:39:59;;;;;;;34.85;10.27;;;4.80;99.90;;;;;;5013237;28;20037;-76
2022/01/12 09:42:24;;;;;;;49.67;11.18;;;4.80;99.90;;;;;;5018532;28;21594;-76
2022/01/12 09:44:50;;;;;;;44.70;9.38;;;4.80;99.90;;;;;;5023802;28;20086;-75
2022/01/12 09:47:17;;;;;;;52.83;12.13;;;4.90;99.90;;;;;;5031542;28;20032;-76
2022/01/12 09:49:44;;;;;;;41.17;11.48;;;4.90;99.90;;;;;;5027918;28;20140;-75
2022/01/12 09:52:11;;;;;;;45.05;11.00;;;4.90;99.90;;;;;;5028367;28;20520;-75
2022/01/12 09:54:38;;;;;;;24.52;7.30;;;5.00;99.90;;;;;;5008581;28;20059;-75
2022/01/12 09:57:04;;;;;;;32.35;7.25;;;5.10;99.90;;;;;;5012440;28;20049;-75
2022/01/12 09:59:30;;;;;;;33.13;8.25;;;5.10;99.90;;;;;;5009924;28;20495;-75
2022/01/12 10:01:58;;;;;;;24.88;8.70;;;5.20;99.90;;;;;;5011633;28;20036;-75
2022/01/12 10:04:29;;;;;;;27.88;8.73;;;5.20;99.90;;;;;;5022792;28;20037;-75
2022/01/12 10:07:02;;;;;;;32.88;9.13;;;5.20;99.90;;;;;;5031861;28;20064;-75
2022/01/12 10:09:34;;;;;;;24.05;7.57;;;5.20;99.90;;;;;;5014270;28;20092;-72
2022/01/12 10:12:01;;;;;;;19.95;7.97;;;5.30;99.90;;;;;;5031335;28;20076;-73
2022/01/12 10:14:49;;;;;;;37.80;8.48;;;5.30;99.90;;;;;;5029649;28;20037;-73
2022/01/12 10:17:16;;;;;;;40.05;7.78;;;5.30;99.90;;;;;;5024143;28;20099;-73
2022/01/12 10:19:42;;;;;;;29.55;7.68;;;5.40;99.90;;;;;;5017774;28;20041;-73
2022/01/12 10:22:11;;;;;;;30.42;7.53;;;5.40;99.90;;;;;;5023210;28;20050;-73
2022/01/12 10:24:42;;;;;;;28.20;7.70;;;5.40;99.90;;;;;;5027370;28;20045;-73
2022/01/12 10:27:18;;;;;;;24.13;6.80;;;5.40;99.90;;;;;;5031515;28;20037;-73
2022/01/12 10:29:47;;;;;;;22.42;7.22;;;5.50;99.90;;;;;;5015317;28;20307;-74
2022/01/12 10:32:17;;;;;;;22.55;7.82;;;5.60;99.90;;;;;;5015134;28;20073;-73
2022/01/12 10:34:45;;;;;;;28.65;8.13;;;5.50;99.90;;;;;;5007525;28;20116;-73
2022/01/12 10:37:12;;;;;;;30.55;13.02;;;5.60;99.90;;;;;;5010028;28;20048;-73
2022/01/12 10:39:43;;;;;;;22.35;10.38;;;5.60;99.90;;;;;;5049887;28;20059;-73
2022/01/12 10:42:11;;;;;;;47.30;14.10;;;5.70;99.90;;;;;;5026349;28;20049;-73
2022/01/12 10:44:37;;;;;;;43.15;11.57;;;5.70;99.90;;;;;;5029307;28;20485;-72
2022/01/12 10:47:19;;;;;;;38.17;9.82;;;5.70;99.90;;;;;;5033671;28;20091;-72
2022/01/12 10:49:58;;;;;;;24.52;9.73;;;5.70;99.90;;;;;;5035426;28;20555;-73
2022/01/12 10:52:50;;;;;;;25.77;8.55;;;5.70;99.90;;;;;;5030097;28;20232;-72
2022/01/12 10:55:17;;;;;;;17.15;8.52;;;5.80;99.90;;;;;;5025842;28;20041;-77
2022/01/12 10:57:47;;;;;;;21.85;8.50;;;5.80;99.90;;;;;;5012528;28;20044;-77
2022/01/12 11:00:19;;;;;;;29.60;10.18;;;5.80;99.90;;;;;;5030292;28;20055;-77
2022/01/12 11:02:57;;;;;;;34.42;9.23;;;5.90;99.90;;;;;;5039937;28;20430;-77
2022/01/12 11:05:25;;;;;;;23.58;8.15;;;5.90;99.90;;;;;;5037812;28;20044;-77
2022/01/12 11:07:51;;;;;;;25.00;8.55;;;5.90;99.90;;;;;;5023001;28;20403;-76
2022/01/12 11:10:18;;;;;;;34.50;7.95;;;5.90;99.90;;;;;;5033195;28;20577;-77
2022/01/12 11:12:44;;;;;;;32.00;8.68;;;5.90;99.90;;;;;;5027466;28;20045;-77
2022/01/12 11:15:15;;;;;;;35.45;9.20;;;6.00;99.90;;;;;;5028681;28;20352;-77
2022/01/12 11:17:42;;;;;;;21.63;7.90;;;6.00;99.90;;;;;;5019760;28;20040;-77
2022/01/12 11:20:26;;;;;;;19.77;7.38;;;6.20;99.90;;;;;;5048303;23;20045;-73
2022/01/12 11:23:06;;;;;;;21.02;6.32;;;6.10;99.90;;;;;;5036360;28;20040;-73
2022/01/12 11:25:39;;;;;;;20.65;6.30;;;6.20;99.90;;;;;;5053882;28;20640;-73
2022/01/12 11:28:18;;;;;;;15.20;6.65;;;6.20;99.90;;;;;;5054431;28;20179;-74
2022/01/12 11:30:58;;;;;;;16.55;8.23;;;6.30;99.90;;;;;;5037547;28;20139;-73
2022/01/12 11:33:30;;;;;;;20.33;7.57;;;6.40;99.90;;;;;;5034013;28;20474;-73
2022/01/12 11:35:59;;;;;;;16.80;6.93;;;6.50;99.90;;;;;;5033544;28;20064;-71
2022/01/12 11:38:28;;;;;;;14.63;6.72;;;6.50;99.90;;;;;;5040702;28;20040;-71
2022/01/12 11:41:20;;;;;;;21.50;7.60;;;6.50;99.90;;;;;;5052810;28;20123;-71
2022/01/12 11:43:53;;;;;;;;;;;6.60;99.90;;;;;;5049933;28;20358;-70
2022/01/12 11:46:26;;;;;;;15.43;7.75;;;6.60;99.90;;;;;;5053982;28;19921;-70
2022/01/12 11:48:57;;;;;;;15.82;7.82;;;6.60;99.90;;;;;;5040938;28;20421;-71
2022/01/12 11:51:37;;;;;;;17.30;7.65;;;6.60;99.90;;;;;;5045358;28;20561;-71
2022/01/12 11:54:12;;;;;;;13.80;7.78;;;6.60;99.90;;;;;;5047953;28;20115;-71
2022/01/12 11:56:50;;;;;;;15.73;7.65;;;6.70;99.90;;;;;;5029318;28;20049;-71
2022/01/12 11:59:16;;;;;;;17.92;7.97;;;6.70;99.90;;;;;;5047187;28;20066;-71
2022/01/12 12:01:51;;;;;;;16.98;7.60;;;6.80;99.90;;;;;;5033026;28;20048;-71
2022/01/12 12:04:28;;;;;;;14.63;7.13;;;6.80;99.90;;;;;;5053116;28;20028;-71
2022/01/12 12:07:10;;;;;;;16.63;7.75;;;6.90;99.90;;;;;;5054349;28;20040;-71
2022/01/12 12:09:39;;;;;;;17.17;7.82;;;6.90;99.90;;;;;;5053429;28;20107;-71
2022/01/12 12:12:17;;;;;;;15.32;7.03;;;7.00;99.90;;;;;;5034878;28;20123;-71
2022/01/12 12:14:44;;;;;;;15.88;7.32;;;7.00;99.90;;;;;;5054957;28;20068;-71
2022/01/12 12:17:10;;;;;;;19.13;7.85;;;7.00;99.90;;;;;;5050697;28;20043;-70
2022/01/12 12:19:37;;;;;;;16.77;8.15;;;6.90;99.90;;;;;;5052873;28;20032;-71
2022/01/12 12:22:12;;;;;;;17.50;5.95;;;7.00;99.90;;;;;;5032579;28;20466;-70
2022/01/12 12:24:38;;;;;;;20.23;6.93;;;7.10;99.90;;;;;;5037671;28;20040;-70
2022/01/12 12:27:05;;;;;;;14.95;6.22;;;7.10;99.90;;;;;;5035974;28;20502;-71
2022/01/12 12:29:31;;;;;;;16.25;6.72;;;7.10;99.90;;;;;;5045380;28;20052;-71
2022/01/12 12:31:57;;;;;;;19.83;7.05;;;7.20;99.90;;;;;;5046867;28;20505;-71
2022/01/12 12:34:24;;;;;;;18.25;7.68;;;7.20;99.90;;;;;;5049861;28;20037;-71
2022/01/12 12:37:04;;;;;;;17.02;6.80;;;7.00;99.90;;;;;;5051423;28;20051;-71
2022/01/12 12:39:33;;;;;;;18.85;7.55;;;7.00;99.90;;;;;;5049401;28;20052;-71
2022/01/12 12:42:01;;;;;;;23.27;8.15;;;7.10;99.90;;;;;;5050595;28;20048;-70
2022/01/12 12:44:29;;;;;;;16.15;7.20;;;7.00;99.90;;;;;;5040956;28;20037;-70
2022/01/12 12:47:11;;;;;;;21.00;7.57;;;7.00;99.90;;;;;;5045813;28;20055;-70
2022/01/12 12:49:52;;;;;;;16.20;7.28;;;7.00;99.90;;;;;;5067031;28;20375;-70
2022/01/12 12:52:32;;;;;;;16.30;7.97;;;7.00;99.90;;;;;;5044122;28;20501;-70
2022/01/12 12:55:01;;;;;;;23.33;8.48;;;7.00;99.90;;;;;;5048222;28;20510;-70
2022/01/12 12:57:28;;;;;;;15.55;7.97;;;7.00;99.90;;;;;;5026742;28;20076;-70
2022/01/12 13:00:11;;;;;;;21.27;9.27;;;7.00;99.90;;;;;;5040750;28;20103;-70
2022/01/12 13:02:39;;;;;;;18.50;8.40;;;7.00;99.90;;;;;;5045757;28;20561;-70
2022/01/12 13:05:07;;;;;;;20.60;8.30;;;7.10;99.90;;;;;;5032164;28;20052;-70
2022/01/12 13:07:37;;;;;;;19.80;8.20;;;7.00;99.90;;;;;;5022664;28;20037;-70
2022/01/12 13:10:11;;;;;;;26.73;9.10;;;7.10;99.90;;;;;;5045936;28;20036;-70
2022/01/12 13:12:38;;;;;;;20.17;9.32;;;7.00;99.90;;;;;;5070194;28;20485;-70
2022/01/12 13:15:06;;;;;;;25.00;10.43;;;7.00;99.90;;;;;;5032408;28;20048;-70
2022/01/12 13:17:32;;;;;;;17.50;8.68;;;7.00;99.90;;;;;;5052707;28;20048;-70
2022/01/12 13:22:28;;;;;;;19.00;8.98;;;7.10;99.90;;;;;;5053286;28;20056;-70
2022/01/12 13:24:55;;;;;;;19.02;8.95;;;7.00;99.90;;;;;;5051521;28;20040;-70
2022/01/12 13:27:23;;;;;;;20.70;9.00;;;7.00;99.90;;;;;;5052573;28;20124;-70
2022/01/12 13:29:49;;;;;;;23.23;8.98;;;7.00;99.90;;;;;;5052887;28;20033;-70
2022/01/12 13:32:16;;;;;;;28.38;9.65;;;7.00;99.90;;;;;;5053054;28;20067;-70
2022/01/12 13:34:53;;;;;;;20.20;9.75;;;7.00;99.90;;;;;;5036821;28;20036;-71
2022/01/12 13:37:18;;;;;;;21.50;10.07;;;7.00;99.90;;;;;;5050380;28;20120;-71
2022/01/12 13:39:44;;;;;;;25.38;10.23;;;6.90;99.90;;;;;;5051656;28;20439;-71
2022/01/12 13:42:09;;;;;;;23.55;9.15;;;6.80;99.90;;;;;;5069545;28;20045;-71
2022/01/12 13:44:35;;;;;;;21.58;10.27;;;6.80;99.90;;;;;;5036376;28;20093;-71
2022/01/12 13:49:30;;;;;;;23.67;9.90;;;6.80;99.90;;;;;;5046016;28;20709;-71
2022/01/12 13:51:55;;;;;;;22.98;11.15;;;6.80;99.90;;;;;;5034826;28;20048;-71
2022/01/12 13:54:21;;;;;;;21.67;11.43;;;6.80;99.90;;;;;;5052134;28;20044;-72
2022/01/12 13:56:51;;;;;;;23.17;11.00;;;6.80;99.90;;;;;;5051769;28;20044;-72
2022/01/12 13:59:18;;;;;;;25.48;11.80;;;6.80;99.90;;;;;;5051499;28;20462;-71
2022/01/12 14:01:44;;;;;;;17.00;9.43;;;6.80;99.90;;;;;;5023025;28;20051;-71
2022/01/12 14:04:18;;;;;;;15.27;9.38;;;6.80;99.90;;;;;;5047019;28;20075;-72